Time;durP1;ratioP1;P1;durP2;ratioP2;P2;SDS_P1;SDS_P2;PMS_P1;PMS_P2;Temp;Humidity;BMP_temperature;BMP_pressure;BME280_temperature;BME280_humidity;BME280_pressure;Samples;Min_cycle;Max_cycle;Signal;HPM_P1;HPM_P2
2023/04/29 00:08:52;;;;;;;7.33;5.27;;;13.00;99.90;;;;;;20746199;28;20120;-73
2023/04/29 00:18:53;;;;;;;8.70;5.93;;;13.10;99.90;;;;;;20825020;28;20120;-72
2023/04/29 00:28:53;;;;;;;9.90;4.80;;;13.10;99.90;;;;;;20749950;28;20049;-75
2023/04/29 00:38:54;;;;;;;4.40;2.67;;;13.00;99.90;;;;;;20727920;28;20408;-75
2023/04/29 00:48:55;;;;;;;6.30;3.90;;;12.90;99.90;;;;;;20727501;28;20040;-73
2023/04/29 00:58:57;;;;;;;279.60;12.33;;;13.00;99.90;;;;;;20726997;28;20132;-73
2023/04/29 01:09:12;;;;;;;4.90;2.83;;;12.90;99.90;;;;;;20745046;28;20072;-74
2023/04/29 01:19:33;;;;;;;5.45;2.67;;;12.40;99.90;;;;;;20725543;28;20057;-73
2023/04/29 01:29:57;;;;;;;3.03;2.47;;;12.60;99.90;;;;;;20741367;28;20030;-73
2023/04/29 01:40:11;;;;;;;5.35;2.85;;;12.50;99.90;;;;;;20741278;28;20092;-73
2023/04/29 01:50:17;;;;;;;5.70;2.28;;;12.50;99.90;;;;;;20747662;28;20121;-73
2023/04/29 02:00:18;;;;;;;8.60;3.67;;;12.60;99.90;;;;;;20741353;28;20026;-73
2023/04/29 02:10:24;;;;;;;5.97;3.67;;;12.80;99.90;;;;;;20757060;28;20037;-73
2023/04/29 02:20:34;;;;;;;8.23;3.95;;;12.80;99.90;;;;;;20738854;28;20029;-73
2023/04/29 02:30:39;;;;;;;3.50;2.42;;;12.80;99.90;;;;;;20738070;28;20040;-73
2023/04/29 02:40:44;;;;;;;8.53;2.27;;;12.70;99.90;;;;;;20737282;28;20531;-73
2023/04/29 02:50:45;;;;;;;8.70;2.30;;;12.70;99.90;;;;;;20753845;28;20026;-73
2023/04/29 03:00:46;;;;;;;;;;;12.70;99.90;;;;;;20737388;28;20034;-73
2023/04/29 03:10:47;;;;;;;4.30;2.90;;;12.90;99.90;;;;;;20733907;28;19913;-73
2023/04/29 03:20:48;;;;;;;6.90;3.80;;;12.90;99.90;;;;;;20734264;28;20504;-74
2023/04/29 03:30:49;;;;;;;9.02;4.57;;;12.90;99.90;;;;;;20750998;28;20037;-74
2023/04/29 03:40:50;;;;;;;3.63;2.90;;;12.90;99.90;;;;;;20750941;28;20045;-74
2023/04/29 03:50:52;;;;;;;5.85;3.83;;;13.00;99.90;;;;;;20748110;28;20035;-74
2023/04/29 04:00:54;;;;;;;9.77;3.80;;;13.00;99.90;;;;;;20748623;28;20109;-74
2023/04/29 04:11:01;;;;;;;7.78;3.25;;;13.00;99.90;;;;;;20729876;28;20308;-74
2023/04/29 04:21:17;;;;;;;6.72;3.70;;;12.70;99.90;;;;;;20731544;28;20030;-74
2023/04/29 04:31:23;;;;;;;8.38;3.10;;;12.80;99.90;;;;;;20728078;28;20250;-74
2023/04/29 04:41:25;;;;;;;5.53;2.30;;;12.70;99.90;;;;;;20744785;28;20099;-73
2023/04/29 04:51:28;;;;;;;10.70;3.10;;;12.70;99.90;;;;;;20727445;28;20042;-74
2023/04/29 05:01:29;;;;;;;5.55;3.30;;;12.80;99.90;;;;;;20727461;28;20040;-73
2023/04/29 05:11:30;;;;;;;4.22;1.90;;;12.80;99.90;;;;;;20726365;28;20727;-73
2023/04/29 05:21:51;;;;;;;2.05;1.60;;;12.40;99.90;;;;;;20725696;28;20038;-73
2023/04/29 05:31:52;;;;;;;;;;;12.40;99.90;;;;;;20725896;28;20029;-73
2023/04/29 05:41:53;;;;;;;2.15;1.35;;;12.40;99.90;;;;;;20724996;28;19932;-74
2023/04/29 05:52:05;;;;;;;3.67;1.52;;;12.70;99.90;;;;;;20724798;28;20504;-74
2023/04/29 06:02:06;;;;;;;3.17;1.80;;;12.70;99.90;;;;;;20724522;28;20511;-74
2023/04/29 06:12:09;;;;;;;3.38;2.03;;;13.20;99.90;;;;;;20740005;28;20034;-74
2023/04/29 06:22:10;;;;;;;5.20;3.28;;;13.70;99.90;;;;;;20738782;28;20105;-74
2023/04/29 06:32:14;;;;;;;5.85;2.17;;;14.30;99.90;;;;;;20731346;28;20030;-76
2023/04/29 06:42:16;;;;;;;3.05;1.63;;;14.80;99.90;;;;;;20736360;28;20033;-76
2023/04/29 06:52:25;;;;;;;4.50;2.10;;;15.40;99.90;;;;;;20753042;28;20431;-76
2023/04/29 07:02:26;;;;;;;4.40;2.80;;;15.80;99.90;;;;;;20754044;28;20026;-74
2023/04/29 07:12:26;;;;;;;5.50;2.73;;;16.40;99.90;;;;;;20743264;28;20496;-75
2023/04/29 07:22:28;;;;;;;6.15;3.45;;;16.40;99.90;;;;;;20741467;28;20030;-75
2023/04/29 07:32:32;;;;;;;7.57;3.10;;;17.10;99.90;;;;;;20731395;28;20045;-75
2023/04/29 07:42:36;;;;;;;11.43;5.97;;;17.40;99.90;;;;;;20749631;28;20356;-75
2023/04/29 07:52:39;;;;;;;12.63;5.45;;;17.00;99.90;;;;;;20747593;28;20052;-75
2023/04/29 08:02:40;;;;;;;8.43;4.57;;;17.10;99.90;;;;;;20749353;28;20030;-76
2023/04/29 08:12:44;;;;;;;7.22;4.13;;;17.50;99.90;;;;;;20747330;28;20374;-75
2023/04/29 08:22:46;;;;;;;5.28;2.40;;;17.70;99.90;;;;;;20748197;28;20405;-75
2023/04/29 08:32:46;;;;;;;1.95;1.50;;;18.00;99.90;;;;;;20747558;28;20022;-75
2023/04/29 08:42:48;;;;;;;1.97;1.30;;;18.50;99.90;;;;;;20746286;28;20026;-75
2023/04/29 08:52:50;;;;;;;2.38;1.10;;;18.80;99.90;;;;;;20749574;28;20065;-80
2023/04/29 09:02:54;;;;;;;4.03;1.30;;;19.50;99.90;;;;;;20760413;28;20033;-83
2023/04/29 09:12:57;;;;;;;2.63;0.80;;;18.90;99.90;;;;;;20745695;28;20123;-79
2023/04/29 09:23:00;;;;;;;3.13;0.77;;;19.60;99.90;;;;;;20762504;28;20500;-77
2023/04/29 09:33:08;;;;;;;1.83;0.70;;;20.50;99.90;;;;;;20763009;28;20664;-80
2023/04/29 09:43:14;;;;;;;3.15;0.63;;;19.90;99.90;;;;;;20759977;28;20041;-79
2023/04/29 09:53:28;;;;;;;1.10;0.60;;;20.10;99.90;;;;;;20761522;28;20120;-80
2023/04/29 10:03:37;;;;;;;1.70;0.73;;;21.30;99.90;;;;;;20769841;28;20057;-80
2023/04/29 10:13:41;;;;;;;3.40;1.20;;;21.40;99.90;;;;;;20754672;28;20454;-79
2023/04/29 10:23:43;;;;;;;2.08;1.05;;;20.30;99.90;;;;;;20781280;28;20034;-81
2023/04/29 10:33:46;;;;;;;3.63;1.10;;;19.80;99.90;;;;;;20775210;28;20021;-77
2023/04/29 10:43:47;;;;;;;6.80;0.98;;;20.40;99.90;;;;;;20754804;28;20555;-81
2023/04/29 10:54:14;;;;;;;3.50;0.90;;;22.10;99.90;;;;;;20778310;28;20045;-82
2023/04/29 11:04:17;;;;;;;2.50;0.52;;;23.10;99.90;;;;;;20779577;28;20034;-81
2023/04/29 11:14:25;;;;;;;1.75;0.77;;;22.70;99.90;;;;;;20782377;28;20029;-80
2023/04/29 11:24:27;;;;;;;3.60;0.80;;;23.50;99.90;;;;;;20793195;28;20038;-81
2023/04/29 11:34:28;;;;;;;5.57;0.60;;;22.40;99.90;;;;;;20790689;28;20151;-81
2023/04/29 11:44:28;;;;;;;;;;;21.70;99.90;;;;;;20755096;28;20120;-82
2023/04/29 11:54:29;;;;;;;4.33;0.80;;;22.80;99.90;;;;;;20770429;28;19909;-80
2023/04/29 12:04:30;;;;;;;;;;;22.10;99.90;;;;;;20769839;28;20057;-82
2023/04/29 12:14:31;;;;;;;3.38;1.63;;;23.30;99.90;;;;;;20751837;28;19991;-81
2023/04/29 12:24:34;;;;;;;;;;;23.00;99.90;;;;;;20771470;28;20449;-81
2023/04/29 12:34:35;;;;;;;6.93;1.35;;;23.80;99.90;;;;;;20770174;28;19917;-80
2023/04/29 12:44:36;;;;;;;0.95;0.28;;;24.00;99.90;;;;;;20767852;28;20461;-80
2023/04/29 12:54:39;;;;;;;;;;;22.90;97.40;;;;;;20768665;28;20030;-81
2023/04/29 13:04:40;;;;;;;0.13;0.10;;;23.10;95.70;;;;;;20767618;28;19920;-81
2023/04/29 13:14:41;;;;;;;;;;;22.70;95.90;;;;;;20768983;28;20109;-81
2023/04/29 13:24:42;;;;;;;1.67;0.40;;;22.70;97.20;;;;;;20771829;28;19924;-81
2023/04/29 13:34:43;;;;;;;;;;;23.20;98.20;;;;;;20777149;28;20068;-80
2023/04/29 13:44:44;;;;;;;0.67;0.57;;;23.20;98.30;;;;;;20773615;28;19936;-81
2023/04/29 13:54:45;;;;;;;;;;;22.80;99.90;;;;;;20764266;28;20034;-81
2023/04/29 14:04:46;;;;;;;2.05;0.70;;;23.50;99.60;;;;;;20781959;28;20533;-79
2023/04/29 14:14:47;;;;;;;1.02;0.50;;;22.70;99.90;;;;;;20781908;28;20050;-81
2023/04/29 14:24:48;;;;;;;;;;;23.00;99.90;;;;;;20780016;28;20080;-81
2023/04/29 14:34:49;;;;;;;0.93;0.55;;;22.50;99.90;;;;;;20777910;28;19916;-81
2023/04/29 14:44:50;;;;;;;1.10;0.85;;;22.50;99.90;;;;;;20776899;28;20034;-76
2023/04/29 14:54:51;;;;;;;0.70;0.70;;;22.00;99.90;;;;;;20755349;28;20034;-76
2023/04/29 15:04:52;;;;;;;1.70;0.60;;;20.80;99.90;;;;;;20716860;23;20035;-81
2023/04/29 15:14:52;;;;;;;0.77;0.70;;;21.40;99.90;;;;;;20677866;28;20026;-81
2023/04/29 15:24:53;;;;;;;1.40;0.93;;;21.30;99.90;;;;;;20717379;28;20088;-79
2023/04/29 15:34:54;;;;;;;0.87;0.70;;;21.70;99.90;;;;;;20716603;28;20038;-79
2023/04/29 15:44:55;;;;;;;3.85;1.08;;;21.20;99.90;;;;;;20719218;28;20030;-81
2023/04/29 15:54:57;;;;;;;1.52;0.73;;;21.70;99.90;;;;;;20674955;28;20033;-79
2023/04/29 16:04:57;;;;;;;3.00;0.60;;;20.90;99.90;;;;;;20700546;28;20026;-79
2023/04/29 16:14:58;;;;;;;2.23;1.00;;;21.00;99.90;;;;;;20724869;28;20037;-79
2023/04/29 16:24:59;;;;;;;2.47;1.00;;;20.70;99.90;;;;;;20690798;28;20026;-79
2023/04/29 16:35:00;;;;;;;;;;;20.40;99.90;;;;;;20669832;28;20061;-78
2023/04/29 16:45:01;;;;;;;3.27;0.80;;;20.40;99.90;;;;;;20681617;28;19914;-79
2023/04/29 16:55:02;;;;;;;6.23;1.00;;;20.10;99.90;;;;;;20705059;28;20313;-78
2023/04/29 17:05:03;;;;;;;;;;;20.20;99.90;;;;;;20708960;28;20047;-79
2023/04/29 17:15:04;;;;;;;5.18;1.17;;;20.20;99.90;;;;;;20693726;28;19965;-80
2023/04/29 17:25:07;;;;;;;;;;;19.80;99.90;;;;;;20683185;28;20030;-81
2023/04/29 17:35:08;;;;;;;2.63;1.27;;;20.00;99.90;;;;;;20656390;28;19949;-79
2023/04/29 17:45:10;;;;;;;4.20;1.50;;;19.10;99.90;;;;;;20671013;28;20034;-79
2023/04/29 17:55:10;;;;;;;1.65;1.38;;;18.40;99.90;;;;;;20696554;28;20499;-79
2023/04/29 18:05:12;;;;;;;2.40;1.40;;;17.90;99.90;;;;;;20693877;28;20030;-77
2023/04/29 18:15:15;;;;;;;6.00;1.73;;;17.40;99.90;;;;;;20661262;28;20037;-77
2023/04/29 18:25:16;;;;;;;4.72;1.75;;;17.40;99.90;;;;;;20684310;28;20030;-78
2023/04/29 18:35:17;;;;;;;3.20;1.90;;;17.40;99.90;;;;;;20697908;28;20033;-78
2023/04/29 18:45:17;;;;;;;2.27;1.57;;;17.00;99.90;;;;;;20674122;28;20471;-78
2023/04/29 18:55:18;;;;;;;3.90;1.77;;;16.60;99.90;;;;;;20672811;28;20504;-78
2023/04/29 19:05:20;;;;;;;5.70;1.97;;;16.30;99.90;;;;;;20671594;28;20176;-77
2023/04/29 19:15:23;;;;;;;4.18;2.00;;;15.80;99.90;;;;;;20670334;28;20034;-77
2023/04/29 19:25:26;;;;;;;5.55;3.05;;;15.60;99.90;;;;;;20690003;28;20042;-78
2023/04/29 19:35:27;;;;;;;7.10;3.13;;;15.50;99.90;;;;;;20670733;28;20038;-77
2023/04/29 19:45:28;;;;;;;4.60;3.10;;;15.10;99.90;;;;;;20670113;28;20561;-77
2023/04/29 19:55:29;;;;;;;5.67;3.50;;;14.90;99.90;;;;;;20669012;28;20026;-77
2023/04/29 20:05:30;;;;;;;5.60;2.90;;;14.60;99.90;;;;;;20667320;28;20128;-76
2023/04/29 20:15:31;;;;;;;7.40;3.30;;;14.20;99.90;;;;;;20649206;28;20397;-77
2023/04/29 20:25:31;;;;;;;11.27;4.70;;;13.60;99.90;;;;;;20664957;28;20032;-77
2023/04/29 20:35:32;;;;;;;11.30;4.70;;;13.10;99.90;;;;;;20646497;28;20030;-77
2023/04/29 20:45:38;;;;;;;6.57;4.37;;;12.60;99.90;;;;;;20664260;28;20019;-76
2023/04/29 20:55:39;;;;;;;3.63;2.30;;;12.00;99.90;;;;;;20662217;28;20030;-77
2023/04/29 21:05:39;;;;;;;3.77;2.47;;;12.20;99.90;;;;;;20647468;23;20043;-84
2023/04/29 21:15:45;;;;;;;5.27;2.97;;;12.50;99.90;;;;;;20601514;28;20065;-85
2023/04/29 21:25:46;;;;;;;8.15;3.45;;;12.50;99.90;;;;;;20634262;28;20114;-85
2023/04/29 21:35:50;;;;;;;5.70;3.27;;;12.40;99.90;;;;;;20591720;28;20034;-86
2023/04/29 21:45:53;;;;;;;4.22;3.10;;;12.50;99.90;;;;;;20584255;28;20062;-84
2023/04/29 21:55:54;;;;;;;7.35;3.15;;;12.40;99.90;;;;;;20573413;28;20034;-84
2023/04/29 22:05:55;;;;;;;4.70;3.33;;;12.50;99.90;;;;;;20500806;28;20047;-84
2023/04/29 22:15:56;;;;;;;6.80;3.88;;;12.30;99.90;;;;;;20510090;28;20035;-84
2023/04/29 22:25:56;;;;;;;8.60;4.07;;;12.20;99.90;;;;;;20511633;28;20046;-84
2023/04/29 22:35:57;;;;;;;4.87;2.83;;;12.30;99.90;;;;;;20519042;28;20396;-85
2023/04/29 22:45:58;;;;;;;5.73;3.20;;;12.40;99.90;;;;;;20601674;28;20038;-85
2023/04/29 22:56:00;;;;;;;6.67;3.70;;;12.40;99.90;;;;;;20613942;28;20030;-87
2023/04/29 23:06:02;;;;;;;6.75;4.00;;;12.50;99.90;;;;;;20625597;28;20027;-84
2023/04/29 23:16:03;;;;;;;;;;;12.40;99.90;;;;;;20604905;28;20046;-85
2023/04/29 23:26:04;;;;;;;6.33;3.27;;;12.40;99.90;;;;;;20585267;28;19914;-85
2023/04/29 23:36:05;;;;;;;10.80;6.65;;;12.30;99.90;;;;;;20664151;28;20284;-85
2023/04/29 23:46:06;;;;;;;7.38;4.70;;;12.10;99.90;;;;;;20664793;28;20049;-85
2023/04/29 23:56:08;;;;;;;7.10;4.13;;;11.90;99.90;;;;;;20663282;28;20050;-85
